Terminal Aerodrome Forecast
Issued by NWS Sioux Falls, SD

Home | Current Version | Previous Version | Text Only | Print | Product List | Glossary On
Versions: 1 2 3 4 5 6 7 8 9 10 11 12 13 14 15 16 17 18 19 20 21 22 23
123
FTUS43 KFSD 242320
TAFFSD
TAF
KFSD 242320Z 2500/2524 32006KT P6SM VCSH OVC015
     FM250300 32007KT P6SM SHRA VCTS BKN010 OVC040CB
     FM250900 01008KT 5SM -SHRA OVC008
     FM251800 36009KT P6SM OVC008
     FM252100 35009KT 5SM -SHRA OVC008=

USA.gov is the U.S. government's official web portal to all federal, state and local government web resources and services.